createdAt,value
2017-12-06T00:01:34.806Z,8.70
2017-12-06T00:04:03.082Z,8.70
2017-12-06T00:06:31.423Z,8.70
2017-12-06T00:09:01.214Z,8.60
2017-12-06T00:11:29.497Z,8.60
2017-12-06T00:14:04.622Z,8.40
2017-12-06T00:16:32.917Z,8.60
2017-12-06T00:19:01.203Z,8.60
2017-12-06T00:21:29.542Z,8.60
2017-12-06T00:26:27.353Z,8.60
2017-12-06T00:28:55.978Z,8.50
2017-12-06T00:31:24.251Z,8.50
2017-12-06T00:33:52.537Z,8.50
2017-12-06T00:36:20.877Z,8.50
2017-12-06T00:38:49.162Z,8.40
2017-12-06T00:41:18.219Z,8.40
2017-12-06T00:46:17.230Z,8.40
2017-12-06T00:48:46.650Z,8.50
2017-12-06T00:51:14.998Z,8.40
2017-12-06T00:53:43.282Z,8.40
2017-12-06T00:56:11.578Z,8.40
2017-12-06T00:58:39.931Z,8.50
2017-12-06T01:01:09.366Z,8.50
2017-12-06T01:03:37.658Z,8.60
2017-12-06T01:08:35.522Z,8.50
2017-12-06T01:11:04.569Z,8.60
2017-12-06T01:13:33.673Z,8.50
2017-12-06T01:16:01.958Z,8.50
2017-12-06T01:18:30.247Z,8.60
2017-12-06T01:23:28.158Z,8.60
2017-12-06T01:28:26.013Z,8.50
2017-12-06T01:30:54.305Z,8.60
2017-12-06T01:33:23.349Z,8.60
2017-12-06T01:35:51.874Z,8.60
2017-12-06T01:38:21.294Z,8.50
2017-12-06T01:40:49.586Z,8.40
2017-12-06T01:43:17.931Z,8.40
2017-12-06T01:48:15.729Z,8.50
2017-12-06T01:50:44.076Z,8.60
2017-12-06T01:53:12.359Z,8.60
2017-12-06T01:55:41.047Z,8.60
2017-12-06T01:58:09.370Z,8.50
2017-12-06T02:00:37.654Z,8.50
2017-12-06T02:03:05.934Z,8.60
2017-12-06T02:05:34.919Z,8.60
2017-12-06T02:08:04.718Z,8.60
2017-12-06T02:10:34.138Z,8.60
2017-12-06T02:13:02.478Z,8.60
2017-12-06T02:15:30.903Z,8.50
2017-12-06T02:17:59.185Z,8.50
2017-12-06T02:20:27.536Z,8.40
2017-12-06T02:22:56.947Z,8.40
2017-12-06T02:25:26.034Z,8.50
2017-12-06T02:27:55.523Z,8.50
2017-12-06T02:30:23.817Z,8.50
2017-12-06T02:32:52.875Z,8.50
2017-12-06T02:35:21.226Z,8.50
2017-12-06T02:40:31.286Z,8.50
2017-12-06T02:43:11.316Z,8.50
2017-12-06T02:45:39.688Z,8.50
2017-12-06T02:48:07.982Z,8.60
2017-12-06T02:50:36.271Z,8.60
2017-12-06T02:53:04.618Z,7.60
2017-12-06T02:55:34.050Z,8.60
2017-12-06T02:58:02.340Z,8.50
2017-12-06T03:00:30.674Z,8.60
2017-12-06T03:03:00.482Z,8.60
2017-12-06T03:05:28.763Z,8.50
2017-12-06T03:10:28.151Z,8.50
2017-12-06T03:12:57.570Z,8.50
2017-12-06T03:15:25.947Z,8.40
2017-12-06T03:17:54.229Z,8.50
2017-12-06T03:20:23.282Z,8.50
2017-12-06T03:22:51.646Z,8.50
2017-12-06T03:25:20.688Z,8.60
2017-12-06T03:27:49.042Z,8.50
2017-12-06T03:30:17.429Z,8.60
2017-12-06T03:32:45.723Z,8.60
2017-12-06T03:35:14.018Z,8.60
2017-12-06T03:37:42.358Z,8.60
2017-12-06T03:40:10.637Z,8.60
2017-12-06T03:42:39.293Z,8.60
2017-12-06T03:45:07.658Z,8.60
2017-12-06T03:47:35.947Z,8.60
2017-12-06T03:50:04.998Z,8.60
2017-12-06T03:52:33.342Z,8.70
2017-12-06T03:55:01.628Z,8.70
2017-12-06T03:57:30.674Z,8.60
2017-12-06T03:59:59.043Z,8.60
2017-12-06T04:04:56.837Z,8.50
2017-12-06T04:07:25.181Z,8.50
2017-12-06T04:09:54.238Z,8.50
2017-12-06T04:12:23.658Z,8.40
2017-12-06T04:14:51.989Z,8.50
2017-12-06T04:17:20.282Z,8.50
2017-12-06T04:19:48.572Z,8.50
2017-12-06T04:22:16.917Z,8.50
2017-12-06T04:24:45.203Z,8.50
2017-12-06T04:27:13.502Z,8.50
2017-12-06T04:29:41.909Z,8.40
2017-12-06T04:32:11.070Z,8.40
2017-12-06T04:34:40.274Z,8.40
2017-12-06T04:37:08.615Z,8.40
2017-12-06T04:39:38.044Z,8.40
2017-12-06T04:42:06.336Z,8.40
2017-12-06T04:44:35.425Z,8.50
2017-12-06T04:47:03.709Z,8.40
2017-12-06T04:49:31.998Z,8.50
2017-12-06T04:52:00.363Z,8.50
2017-12-06T04:54:29.411Z,8.50
2017-12-06T04:56:57.696Z,8.40
2017-12-06T04:59:26.030Z,8.50
2017-12-06T05:01:54.310Z,8.50
2017-12-06T05:04:22.597Z,8.50
2017-12-06T05:06:50.977Z,8.50
2017-12-06T05:09:20.402Z,8.50
2017-12-06T05:11:48.686Z,8.50
2017-12-06T05:14:17.038Z,8.50
2017-12-06T05:16:45.317Z,8.60
2017-12-06T05:19:14.370Z,8.60
2017-12-06T05:21:42.711Z,8.70
2017-12-06T05:24:12.862Z,8.60
2017-12-06T05:26:41.149Z,8.60
2017-12-06T05:29:09.491Z,8.60
2017-12-06T05:31:38.609Z,8.60
2017-12-06T05:34:07.675Z,8.60
2017-12-06T05:36:36.013Z,8.70
2017-12-06T05:39:04.306Z,8.70
2017-12-06T05:41:32.583Z,8.60
2017-12-06T05:44:01.686Z,8.60
2017-12-06T05:46:31.109Z,8.60
2017-12-06T05:48:59.791Z,8.70
2017-12-06T05:51:28.469Z,8.70
2017-12-06T05:53:56.750Z,8.70
2017-12-06T05:56:25.350Z,8.70
2017-12-06T05:58:55.197Z,8.70
2017-12-06T06:01:23.537Z,8.60
2017-12-06T06:03:52.554Z,8.70
2017-12-06T06:06:20.915Z,8.70
2017-12-06T06:08:49.202Z,8.70
2017-12-06T06:11:19.445Z,8.70
2017-12-06T06:13:48.933Z,8.70
2017-12-06T06:16:17.250Z,8.70
2017-12-06T06:18:45.539Z,8.80
2017-12-06T06:21:13.917Z,8.80
2017-12-06T06:23:42.225Z,8.80
2017-12-06T06:26:10.543Z,8.70
2017-12-06T06:28:38.879Z,8.70
2017-12-06T06:31:07.946Z,8.70
2017-12-06T06:33:36.271Z,8.70
2017-12-06T06:36:04.611Z,8.60
2017-12-06T06:43:32.047Z,8.70
2017-12-06T06:46:00.341Z,8.80
2017-12-06T06:48:28.684Z,8.80
2017-12-06T06:50:57.738Z,8.80
2017-12-06T06:53:26.786Z,8.90
2017-12-06T06:55:55.131Z,8.80
2017-12-06T06:58:24.922Z,8.80
2017-12-06T07:00:53.212Z,8.70
2017-12-06T07:03:21.577Z,8.70
2017-12-06T07:05:50.635Z,8.70
2017-12-06T07:08:20.058Z,8.60
2017-12-06T07:10:48.426Z,8.70
2017-12-06T07:13:17.478Z,8.70
2017-12-06T07:15:45.758Z,8.70
2017-12-06T07:18:25.141Z,8.70
2017-12-06T07:20:54.558Z,8.80
2017-12-06T07:23:22.842Z,8.80
2017-12-06T07:28:20.726Z,8.70
2017-12-06T07:30:49.011Z,8.80
2017-12-06T07:33:18.318Z,8.80
2017-12-06T07:35:46.659Z,8.80
2017-12-06T07:38:14.942Z,8.70
2017-12-06T07:40:43.290Z,8.70
2017-12-06T07:43:11.578Z,8.70
2017-12-06T07:45:39.857Z,8.80
2017-12-06T07:48:08.205Z,8.70
2017-12-06T07:50:37.254Z,8.70
2017-12-06T07:53:05.533Z,8.70
2017-12-06T07:58:04.203Z,8.80
2017-12-06T08:00:33.243Z,8.80
2017-12-06T08:03:01.605Z,8.80
2017-12-06T08:05:29.904Z,8.80
2017-12-06T08:07:58.604Z,8.80
2017-12-06T08:10:26.935Z,8.80
2017-12-06T08:12:55.609Z,8.90
2017-12-06T08:15:24.668Z,9.00
2017-12-06T08:17:53.186Z,9.00
2017-12-06T08:20:22.236Z,9.00
2017-12-06T08:22:51.658Z,9.00
2017-12-06T08:25:19.994Z,9.00
2017-12-06T08:27:48.281Z,9.00
2017-12-06T08:30:17.702Z,9.00
2017-12-06T08:32:46.046Z,9.10
2017-12-06T08:35:14.357Z,9.00
2017-12-06T08:37:42.685Z,9.00
2017-12-06T08:40:11.794Z,9.00
2017-12-06T08:42:40.866Z,9.00
2017-12-06T08:45:09.163Z,9.00
2017-12-06T08:47:38.662Z,9.10
2017-12-06T08:50:06.950Z,9.00
2017-12-06T08:52:35.990Z,9.00
2017-12-06T08:55:04.482Z,9.10
2017-12-06T08:57:32.786Z,9.10
2017-12-06T09:00:01.079Z,9.20
2017-12-06T09:02:30.538Z,9.20
2017-12-06T09:04:58.833Z,9.30
2017-12-06T09:07:27.115Z,9.30
2017-12-06T09:09:56.209Z,9.40
2017-12-06T09:14:54.029Z,9.30
2017-12-06T09:17:22.366Z,9.30
2017-12-06T09:19:51.788Z,9.30
2017-12-06T09:22:20.173Z,9.20
2017-12-06T09:24:48.537Z,9.20
2017-12-06T09:27:16.810Z,9.20
2017-12-06T09:29:45.855Z,9.10
2017-12-06T09:32:14.186Z,9.10
2017-12-06T09:34:42.462Z,9.20
2017-12-06T09:37:12.254Z,9.20
2017-12-06T09:39:40.622Z,9.30
2017-12-06T09:42:08.905Z,9.40
2017-12-06T09:44:37.201Z,9.40
2017-12-06T09:47:05.538Z,9.40
2017-12-06T09:49:33.825Z,9.40
2017-12-06T09:52:02.868Z,9.40
2017-12-06T09:54:31.219Z,9.30
2017-12-06T09:56:59.485Z,9.40
2017-12-06T09:59:27.763Z,9.50
2017-12-06T10:01:56.091Z,9.60
2017-12-06T10:04:24.378Z,9.60
2017-12-06T10:06:52.661Z,9.50
2017-12-06T10:09:21.770Z,9.50
2017-12-06T10:11:50.054Z,9.50
2017-12-06T10:14:18.751Z,9.60
2017-12-06T10:16:47.834Z,9.60
2017-12-06T10:19:16.518Z,9.60
2017-12-06T10:21:44.794Z,9.70
2017-12-06T10:24:13.894Z,9.80
2017-12-06T10:26:42.162Z,9.80
2017-12-06T10:29:10.442Z,9.90
2017-12-06T10:31:38.787Z,9.90
2017-12-06T10:34:07.071Z,9.90
2017-12-06T10:36:35.362Z,9.90
2017-12-06T10:39:03.699Z,9.80
2017-12-06T10:41:32.015Z,9.80
2017-12-06T10:44:01.058Z,9.80
2017-12-06T10:46:29.777Z,9.90
2017-12-06T10:48:58.817Z,9.90
2017-12-06T10:51:27.093Z,10.00
2017-12-06T10:53:55.822Z,10.00
2017-12-06T10:56:25.009Z,10.10
2017-12-06T10:58:53.683Z,10.10
2017-12-06T11:01:22.022Z,10.10
2017-12-06T11:03:51.077Z,10.10
2017-12-06T11:06:19.368Z,10.00
2017-12-06T11:08:48.490Z,10.70
2017-12-06T11:11:16.780Z,10.10
2017-12-06T11:13:45.070Z,10.00
2017-12-06T11:18:42.923Z,10.10
2017-12-06T11:21:11.211Z,10.10
2017-12-06T11:23:39.660Z,10.20
2017-12-06T11:26:07.934Z,10.10
2017-12-06T11:28:36.239Z,10.20
2017-12-06T11:31:06.075Z,10.20
2017-12-06T11:33:34.365Z,10.20
2017-12-06T11:36:02.650Z,10.20
2017-12-06T11:38:31.750Z,10.10
2017-12-06T11:41:00.039Z,10.10
2017-12-06T11:43:28.366Z,10.10
2017-12-06T11:45:57.778Z,10.10
2017-12-06T11:48:26.072Z,10.10
2017-12-06T11:50:54.355Z,10.00
2017-12-06T11:53:23.106Z,10.00
2017-12-06T11:55:51.391Z,10.10
2017-12-06T11:58:19.670Z,10.20
2017-12-06T12:00:48.031Z,10.20
2017-12-06T12:03:17.118Z,10.20
2017-12-06T12:05:45.418Z,10.30
2017-12-06T12:08:13.751Z,10.30
2017-12-06T12:10:42.430Z,10.30
2017-12-06T12:13:11.122Z,10.20
2017-12-06T12:15:39.458Z,10.20
2017-12-06T12:18:08.152Z,10.20
2017-12-06T12:20:36.442Z,10.30
2017-12-06T12:23:05.565Z,10.30
2017-12-06T12:25:33.854Z,10.20
2017-12-06T12:28:02.138Z,10.20
2017-12-06T12:30:30.555Z,10.30
2017-12-06T12:32:59.235Z,10.30
2017-12-06T12:35:27.914Z,10.40
2017-12-06T12:37:56.255Z,10.30
2017-12-06T12:40:24.574Z,10.40
2017-12-06T12:42:53.969Z,10.30
2017-12-06T12:45:23.309Z,10.40
2017-12-06T12:47:53.106Z,10.40
2017-12-06T12:50:21.405Z,10.40
2017-12-06T12:52:49.742Z,10.50
2017-12-06T12:55:19.166Z,10.40
2017-12-06T12:57:47.460Z,10.40
2017-12-06T13:00:17.644Z,10.40
2017-12-06T13:02:47.478Z,10.70
2017-12-06T13:05:15.767Z,10.40
2017-12-06T13:07:45.653Z,10.80
2017-12-06T13:10:13.942Z,10.30
2017-12-06T13:12:42.258Z,10.40
2017-12-06T13:15:10.598Z,10.50
2017-12-06T13:17:38.890Z,10.40
2017-12-06T13:20:07.174Z,10.50
2017-12-06T13:22:35.527Z,10.50
2017-12-06T13:25:04.573Z,10.40
2017-12-06T13:27:32.866Z,10.50
2017-12-06T13:30:01.203Z,10.50
2017-12-06T13:32:29.486Z,10.30
2017-12-06T13:34:57.774Z,10.30
2017-12-06T13:37:26.118Z,10.40
2017-12-06T13:39:54.407Z,10.50
2017-12-06T13:42:23.091Z,10.50
2017-12-06T13:44:51.506Z,10.50
2017-12-06T13:47:19.839Z,10.50
2017-12-06T13:49:48.146Z,10.40
2017-12-06T13:52:16.490Z,10.40
2017-12-06T13:54:45.540Z,10.40
2017-12-06T13:57:13.833Z,10.50
2017-12-06T13:59:42.181Z,10.50
2017-12-06T14:02:10.466Z,10.50
2017-12-06T14:04:38.763Z,10.50
2017-12-06T14:07:07.122Z,10.40
2017-12-06T14:09:36.827Z,10.30
2017-12-06T14:12:05.079Z,10.40
2017-12-06T14:14:33.410Z,10.40
2017-12-06T14:17:02.860Z,10.40
2017-12-06T14:19:31.158Z,10.40
2017-12-06T14:22:02.218Z,10.40
2017-12-06T14:24:30.537Z,10.30
2017-12-06T14:26:59.221Z,10.40
2017-12-06T14:29:27.565Z,10.40
2017-12-06T14:31:57.366Z,10.30
2017-12-06T14:34:25.659Z,10.40
2017-12-06T14:36:53.999Z,10.40
2017-12-06T14:39:22.300Z,10.30
2017-12-06T14:41:50.614Z,10.40
2017-12-06T14:44:20.255Z,10.30
2017-12-06T14:46:49.302Z,10.30
2017-12-06T14:49:17.665Z,10.30
2017-12-06T14:51:46.764Z,10.30
2017-12-06T14:54:15.059Z,10.30
2017-12-06T14:56:43.351Z,10.20
2017-12-06T14:59:12.470Z,10.20
2017-12-06T15:01:40.754Z,10.20
2017-12-06T15:04:09.046Z,10.20
2017-12-06T15:06:37.391Z,10.20
2017-12-06T15:09:05.688Z,10.10
2017-12-06T15:11:35.490Z,10.10
2017-12-06T15:14:03.842Z,10.00
2017-12-06T15:16:32.158Z,10.00
2017-12-06T15:19:01.626Z,9.90
2017-12-06T15:21:29.970Z,10.00
2017-12-06T15:23:58.298Z,9.90
2017-12-06T15:26:26.581Z,9.90
2017-12-06T15:28:56.418Z,9.80
2017-12-06T15:31:24.733Z,9.80
2017-12-06T15:33:53.023Z,9.90
2017-12-06T15:36:21.375Z,9.80
2017-12-06T15:38:50.438Z,9.80
2017-12-06T15:41:19.498Z,9.70
2017-12-06T15:43:48.614Z,9.80
2017-12-06T15:46:17.683Z,9.70
2017-12-06T15:48:46.762Z,9.80
2017-12-06T15:53:45.158Z,9.80
2017-12-06T15:56:13.482Z,9.80
2017-12-06T15:58:41.844Z,9.80
2017-12-06T16:01:10.205Z,9.80
2017-12-06T16:03:39.634Z,9.70
2017-12-06T16:08:37.753Z,9.60
2017-12-06T16:11:06.446Z,9.60
2017-12-06T16:13:34.797Z,9.70
2017-12-06T16:16:03.082Z,9.60
2017-12-06T16:18:31.422Z,9.60
2017-12-06T16:21:00.689Z,9.50
2017-12-06T16:23:29.782Z,9.50
2017-12-06T16:25:58.530Z,9.50
2017-12-06T16:28:27.653Z,9.50
2017-12-06T16:30:56.735Z,9.50
2017-12-06T16:33:25.031Z,9.50
2017-12-06T16:36:05.226Z,9.50
2017-12-06T16:38:33.546Z,9.50
2017-12-06T16:41:01.830Z,9.60
2017-12-06T16:43:30.282Z,9.60
2017-12-06T16:45:58.571Z,9.50
2017-12-06T16:48:28.457Z,9.50
2017-12-06T16:50:56.811Z,9.40
2017-12-06T16:53:26.346Z,9.40
2017-12-06T16:58:24.650Z,9.40
2017-12-06T17:00:52.937Z,9.40
2017-12-06T17:03:21.245Z,9.40
2017-12-06T17:05:50.359Z,9.40
2017-12-06T17:08:19.414Z,9.40
2017-12-06T17:10:48.471Z,9.40
2017-12-06T17:13:16.801Z,9.30
2017-12-06T17:18:15.046Z,9.30
2017-12-06T17:20:43.515Z,9.30
2017-12-06T17:23:11.855Z,9.20
2017-12-06T17:25:41.340Z,9.30
2017-12-06T17:28:09.745Z,9.30
2017-12-06T17:30:50.120Z,9.30
2017-12-06T17:33:18.446Z,9.30
2017-12-06T17:35:46.776Z,9.30
2017-12-06T17:38:15.889Z,9.30
2017-12-06T17:40:44.226Z,9.30
2017-12-06T17:43:13.759Z,9.30
2017-12-06T17:45:42.054Z,9.30
2017-12-06T17:48:10.391Z,9.30
2017-12-06T17:50:38.678Z,9.30
2017-12-06T17:53:08.606Z,9.40
2017-12-06T17:55:37.149Z,9.40
2017-12-06T17:58:05.455Z,9.30
2017-12-06T18:00:34.958Z,9.30
2017-12-06T18:03:03.301Z,9.30
2017-12-06T18:05:31.582Z,9.30
2017-12-06T18:08:01.018Z,9.30
2017-12-06T18:10:30.133Z,9.30
2017-12-06T18:12:58.438Z,9.40
2017-12-06T18:15:26.726Z,9.30
2017-12-06T18:17:55.061Z,9.30
2017-12-06T18:22:52.863Z,9.30
2017-12-06T18:25:21.970Z,9.40
2017-12-06T18:27:51.054Z,9.30
2017-12-06T18:30:20.121Z,9.30
2017-12-06T18:32:48.617Z,9.30
2017-12-06T18:35:17.994Z,9.30
2017-12-06T18:37:46.350Z,9.30
2017-12-06T18:40:14.730Z,9.40
2017-12-06T18:42:43.048Z,9.40
2017-12-06T18:45:11.339Z,9.40
2017-12-06T18:47:39.747Z,9.30
2017-12-06T18:50:08.026Z,9.30
2017-12-06T18:52:37.111Z,9.40
2017-12-06T18:55:05.738Z,9.30
2017-12-06T18:57:34.034Z,9.30
2017-12-06T19:00:02.427Z,9.30
2017-12-06T19:02:32.235Z,9.30
2017-12-06T19:05:01.431Z,9.30
2017-12-06T19:07:29.735Z,9.30
2017-12-06T19:09:58.114Z,9.30
2017-12-06T19:12:27.174Z,9.30
2017-12-06T19:17:26.207Z,9.30
2017-12-06T19:19:54.486Z,9.30
2017-12-06T19:22:22.785Z,10.20
2017-12-06T19:24:51.115Z,9.20
2017-12-06T19:27:19.397Z,9.20
2017-12-06T19:29:47.689Z,9.20
2017-12-06T19:32:16.798Z,9.30
2017-12-06T19:34:45.083Z,9.30
2017-12-06T19:37:13.379Z,9.30
2017-12-06T19:39:41.772Z,9.30
2017-12-06T19:44:40.316Z,9.30
2017-12-06T19:47:08.662Z,9.30
2017-12-06T19:49:36.951Z,9.40
2017-12-06T19:52:05.235Z,9.30
2017-12-06T19:54:34.010Z,9.40
2017-12-06T19:57:02.310Z,9.40
2017-12-06T19:59:30.625Z,9.40
2017-12-06T20:01:58.962Z,9.40
2017-12-06T20:04:27.291Z,9.30
2017-12-06T20:06:55.574Z,9.30
2017-12-06T20:11:53.429Z,9.30
2017-12-06T20:14:21.714Z,9.30
2017-12-06T20:16:50.058Z,9.30
2017-12-06T20:19:18.350Z,9.30
2017-12-06T20:21:47.035Z,9.30
2017-12-06T20:24:15.365Z,9.30
2017-12-06T20:26:44.050Z,9.30
2017-12-06T20:29:12.339Z,9.30
2017-12-06T20:31:41.807Z,9.30
2017-12-06T20:34:10.846Z,9.30
2017-12-06T20:36:39.139Z,9.30
2017-12-06T20:39:08.127Z,9.40
2017-12-06T20:41:36.398Z,9.40
2017-12-06T20:44:05.101Z,9.30
2017-12-06T20:46:34.218Z,9.30
2017-12-06T20:49:02.523Z,9.30
2017-12-06T20:51:30.807Z,9.30
2017-12-06T20:53:59.134Z,9.30
2017-12-06T20:56:27.422Z,9.20
2017-12-06T20:58:55.697Z,9.30
2017-12-06T21:01:24.061Z,9.20
2017-12-06T21:03:53.484Z,9.20
2017-12-06T21:06:22.166Z,9.20
2017-12-06T21:08:50.516Z,9.20
2017-12-06T21:16:17.875Z,9.20
2017-12-06T21:18:46.166Z,9.30
2017-12-06T21:21:14.442Z,9.30
2017-12-06T21:23:44.091Z,9.30
2017-12-06T21:26:12.782Z,9.20
2017-12-06T21:31:12.133Z,9.20
2017-12-06T21:33:41.186Z,9.10
2017-12-06T21:36:10.990Z,9.00
2017-12-06T21:38:39.318Z,9.10
2017-12-06T21:43:37.126Z,9.10
2017-12-06T21:46:05.467Z,9.00
2017-12-06T21:48:33.742Z,9.10
2017-12-06T21:51:02.030Z,9.10
2017-12-06T21:53:30.507Z,9.20
2017-12-06T21:56:00.298Z,9.20
2017-12-06T21:58:29.361Z,9.20
2017-12-06T22:00:57.788Z,9.20
2017-12-06T22:03:26.070Z,9.10
2017-12-06T22:05:54.364Z,9.00
2017-12-06T22:08:22.686Z,9.00
2017-12-06T22:10:52.100Z,8.90
2017-12-06T22:13:21.143Z,9.00
2017-12-06T22:15:50.614Z,9.00
2017-12-06T22:18:18.903Z,9.00
2017-12-06T22:20:47.170Z,9.00
2017-12-06T22:23:17.015Z,9.00
2017-12-06T22:28:15.210Z,9.00
2017-12-06T22:30:43.544Z,9.00
2017-12-06T22:33:11.823Z,8.90
2017-12-06T22:35:40.103Z,9.00
2017-12-06T22:38:09.198Z,8.90
2017-12-06T22:40:37.475Z,8.90
2017-12-06T22:43:05.754Z,8.90
2017-12-06T22:45:34.079Z,8.90
2017-12-06T22:48:02.369Z,8.90
2017-12-06T22:50:31.823Z,8.80
2017-12-06T22:55:30.402Z,8.80
2017-12-06T22:57:59.083Z,8.90
2017-12-06T23:00:28.911Z,8.80
2017-12-06T23:02:57.183Z,8.80
2017-12-06T23:05:25.460Z,8.80
2017-12-06T23:07:53.782Z,8.80
2017-12-06T23:10:23.186Z,8.70
2017-12-06T23:12:51.461Z,8.70
2017-12-06T23:15:19.781Z,8.80
2017-12-06T23:17:48.059Z,8.80
2017-12-06T23:20:17.105Z,8.80
2017-12-06T23:22:45.422Z,8.80
2017-12-06T23:25:13.695Z,8.70
2017-12-06T23:27:41.966Z,8.70
2017-12-06T23:30:11.813Z,8.70
2017-12-06T23:32:41.586Z,8.60
2017-12-06T23:35:09.864Z,8.50
2017-12-06T23:37:38.198Z,8.60
2017-12-06T23:40:06.467Z,8.60
2017-12-06T23:42:34.737Z,8.60
2017-12-06T23:45:04.568Z,8.60
2017-12-06T23:47:32.842Z,8.50
2017-12-06T23:50:01.129Z,8.50
2017-12-06T23:52:29.834Z,8.50
2017-12-06T23:54:59.615Z,8.50
2017-12-06T23:57:27.881Z,8.50
2017-12-06T23:59:56.974Z,8.50
